Time;durP1;ratioP1;P1;durP2;ratioP2;P2;SDS_P1;SDS_P2;PMS_P1;PMS_P2;Temp;Humidity;BMP_temperature;BMP_pressure;BME280_temperature;BME280_humidity;BME280_pressure;Samples;Min_cycle;Max_cycle;Signal;HPM_P1;HPM_P2
2022/08/28 00:01:02;;;;;;;8.57;4.88;;;14.60;99.90;;;;;;5033800;28;20042;-38
2022/08/28 00:03:28;;;;;;;8.95;4.65;;;14.60;99.90;;;;;;5039203;28;20491;-37
2022/08/28 00:05:54;;;;;;;9.57;4.20;;;14.60;99.90;;;;;;5036798;28;20037;-39
2022/08/28 00:08:20;;;;;;;8.25;4.00;;;14.60;99.90;;;;;;5040617;28;20063;-37
2022/08/28 00:10:45;;;;;;;9.13;4.90;;;14.60;99.90;;;;;;5038191;28;20415;-38
2022/08/28 00:13:17;;;;;;;7.78;3.75;;;14.60;99.90;;;;;;5031721;28;20806;-37
2022/08/28 00:15:45;;;;;;;11.90;4.30;;;14.60;99.90;;;;;;5040753;28;21385;-38
2022/08/28 00:18:11;;;;;;;11.25;3.92;;;14.50;99.90;;;;;;5037577;28;20041;-37
2022/08/28 00:20:37;;;;;;;12.02;4.47;;;14.50;99.90;;;;;;5034230;28;20053;-38
2022/08/28 00:23:05;;;;;;;6.93;3.72;;;14.40;99.90;;;;;;5037879;28;20044;-38
2022/08/28 00:25:32;;;;;;;8.80;3.70;;;14.40;99.90;;;;;;5042468;28;20542;-37
2022/08/28 00:28:01;;;;;;;6.00;2.67;;;14.40;99.90;;;;;;5037986;28;20045;-37
2022/08/28 00:30:33;;;;;;;5.95;2.88;;;14.40;99.90;;;;;;5037590;28;20179;-37
2022/08/28 00:33:05;;;;;;;8.55;3.08;;;14.40;99.90;;;;;;5030585;28;20038;-37
2022/08/28 00:35:32;;;;;;;9.25;3.22;;;14.40;99.90;;;;;;5043746;28;20506;-38
2022/08/28 00:37:58;;;;;;;8.65;2.92;;;14.40;99.90;;;;;;5034985;28;20049;-38
2022/08/28 00:40:26;;;;;;;5.03;2.08;;;14.40;99.90;;;;;;5037721;28;20040;-38
2022/08/28 00:42:53;;;;;;;5.82;2.78;;;14.40;99.90;;;;;;5039180;28;20506;-36
2022/08/28 00:45:20;;;;;;;9.10;2.78;;;14.40;99.90;;;;;;5035867;28;20079;-38
2022/08/28 00:47:46;;;;;;;5.93;2.25;;;14.30;99.90;;;;;;5038939;28;20049;-38
2022/08/28 00:50:18;;;;;;;5.63;2.45;;;14.30;99.90;;;;;;5035546;28;20033;-39
2022/08/28 00:52:58;;;;;;;7.50;2.75;;;14.30;99.90;;;;;;5042644;28;20502;-37
2022/08/28 00:55:27;;;;;;;9.27;2.60;;;14.20;99.90;;;;;;5038074;28;20060;-40
2022/08/28 00:57:55;;;;;;;6.13;2.55;;;14.20;99.90;;;;;;5040668;28;20059;-37
2022/08/28 01:00:31;;;;;;;6.25;2.53;;;14.20;99.90;;;;;;5040970;28;20041;-38
2022/08/28 01:02:57;;;;;;;5.15;2.03;;;14.20;99.90;;;;;;5036199;28;20483;-37
2022/08/28 01:05:24;;;;;;;4.50;2.38;;;14.20;99.90;;;;;;5035544;28;20037;-38
2022/08/28 01:07:50;;;;;;;6.63;2.70;;;14.10;99.90;;;;;;5039929;28;20514;-37
2022/08/28 01:10:20;;;;;;;9.20;3.13;;;14.10;99.90;;;;;;5037396;28;20067;-39
2022/08/28 01:12:48;;;;;;;4.95;2.00;;;14.10;99.90;;;;;;5034735;28;20088;-39
2022/08/28 01:15:18;;;;;;;6.93;2.60;;;14.10;99.90;;;;;;5039753;28;20128;-37
2022/08/28 01:17:50;;;;;;;4.75;2.33;;;14.00;99.90;;;;;;5040536;28;20560;-38
2022/08/28 01:20:23;;;;;;;10.68;2.60;;;14.00;99.90;;;;;;5035169;28;20493;-39
2022/08/28 01:22:56;;;;;;;;;;;14.00;99.90;;;;;;5033485;28;20418;-38
2022/08/28 01:25:23;;;;;;;;;;;13.90;99.90;;;;;;5040359;28;19925;-38
2022/08/28 01:27:48;;;;;;;7.60;2.30;;;13.90;99.90;;;;;;5041917;28;20393;-39
2022/08/28 01:30:20;;;;;;;5.30;2.25;;;13.80;99.90;;;;;;5039575;28;20107;-37
2022/08/28 01:32:48;;;;;;;5.63;2.55;;;13.80;99.90;;;;;;5035124;28;20042;-36
2022/08/28 01:35:19;;;;;;;6.78;1.85;;;13.80;99.90;;;;;;5036937;28;20402;-38
2022/08/28 01:37:45;;;;;;;7.22;2.00;;;13.80;99.90;;;;;;5045672;28;20117;-38
2022/08/28 01:40:16;;;;;;;5.75;2.28;;;13.80;99.90;;;;;;5044324;28;20041;-37
2022/08/28 01:42:43;;;;;;;7.07;2.25;;;13.80;99.90;;;;;;5035296;28;20186;-38
2022/08/28 01:45:13;;;;;;;5.55;2.00;;;13.80;99.90;;;;;;5037295;28;20491;-38
2022/08/28 01:47:40;;;;;;;4.93;2.13;;;13.80;99.90;;;;;;5038041;28;20041;-37
2022/08/28 01:50:08;;;;;;;7.20;2.40;;;13.80;99.90;;;;;;5038688;28;20033;-38
2022/08/28 01:52:35;;;;;;;6.60;2.42;;;13.80;99.90;;;;;;5042951;28;20399;-38
2022/08/28 01:55:03;;;;;;;8.30;2.15;;;13.80;99.90;;;;;;5038707;28;20480;-37
2022/08/28 01:57:28;;;;;;;4.40;2.25;;;13.80;99.90;;;;;;5044220;28;20115;-38
2022/08/28 01:59:54;;;;;;;6.35;2.15;;;13.80;99.90;;;;;;5039379;28;20124;-38
2022/08/28 02:02:20;;;;;;;4.28;2.05;;;13.70;99.90;;;;;;5038033;28;20029;-39
2022/08/28 02:04:45;;;;;;;3.72;1.88;;;13.70;99.90;;;;;;5039580;28;20127;-38
2022/08/28 02:07:11;;;;;;;5.50;2.22;;;13.70;99.90;;;;;;5038554;28;20037;-37
2022/08/28 02:09:37;;;;;;;5.72;2.33;;;13.70;99.90;;;;;;5038665;28;20044;-37
2022/08/28 02:12:03;;;;;;;6.50;1.83;;;13.70;99.90;;;;;;5039168;28;20087;-38
2022/08/28 02:14:29;;;;;;;6.15;2.22;;;13.70;99.90;;;;;;5041165;28;20525;-38
2022/08/28 02:16:55;;;;;;;5.28;2.00;;;13.80;99.90;;;;;;5035028;28;20041;-37
2022/08/28 02:19:21;;;;;;;5.22;2.15;;;13.70;99.90;;;;;;5037004;28;20049;-38
2022/08/28 02:21:47;;;;;;;5.50;1.92;;;13.70;99.90;;;;;;5044349;28;20098;-38
2022/08/28 02:24:15;;;;;;;5.18;1.50;;;13.70;99.90;;;;;;5040015;28;20067;-37
2022/08/28 02:26:43;;;;;;;6.97;2.13;;;13.70;99.90;;;;;;5042736;28;20041;-39
2022/08/28 02:29:10;;;;;;;6.07;1.77;;;13.70;99.90;;;;;;5037664;28;21199;-40
2022/08/28 02:31:36;;;;;;;7.05;2.17;;;13.60;99.90;;;;;;5040426;28;20094;-38
2022/08/28 02:34:02;;;;;;;4.32;2.13;;;13.60;99.90;;;;;;5038783;28;20048;-39
2022/08/28 02:36:28;;;;;;;6.38;1.80;;;13.60;99.90;;;;;;5034498;28;20029;-37
2022/08/28 02:38:53;;;;;;;5.32;1.92;;;13.60;99.90;;;;;;5042490;28;20102;-39
2022/08/28 02:41:19;;;;;;;6.78;1.95;;;13.60;99.90;;;;;;5039446;28;20345;-38
2022/08/28 02:43:45;;;;;;;5.57;1.60;;;13.60;99.90;;;;;;5037810;28;20045;-37
2022/08/28 02:46:11;;;;;;;4.22;1.73;;;13.50;99.90;;;;;;5039980;28;20051;-38
2022/08/28 02:48:38;;;;;;;7.80;2.35;;;13.60;99.90;;;;;;5042424;28;20060;-37
2022/08/28 02:51:08;;;;;;;6.15;2.00;;;13.60;99.90;;;;;;5036707;28;20029;-38
2022/08/28 02:53:34;;;;;;;3.83;1.98;;;13.50;99.90;;;;;;5039867;28;20106;-38
2022/08/28 02:56:01;;;;;;;4.13;1.70;;;13.50;99.90;;;;;;5039042;28;20093;-38
2022/08/28 02:58:31;;;;;;;6.38;2.00;;;13.50;99.90;;;;;;5037001;28;20053;-38
2022/08/28 03:00:59;;;;;;;3.78;2.13;;;13.50;99.90;;;;;;5035974;28;20041;-37
2022/08/28 03:03:25;;;;;;;4.85;1.90;;;13.50;99.90;;;;;;5032315;28;20053;-38
2022/08/28 03:05:50;;;;;;;4.25;1.88;;;13.50;99.90;;;;;;5034211;28;20033;-40
2022/08/28 03:08:16;;;;;;;3.88;1.48;;;13.40;99.90;;;;;;5038653;28;20619;-38
2022/08/28 03:10:42;;;;;;;7.30;1.92;;;13.40;99.90;;;;;;5045239;28;20516;-37
2022/08/28 03:13:07;;;;;;;4.55;1.73;;;13.40;99.90;;;;;;5037553;28;20385;-37
2022/08/28 03:15:33;;;;;;;4.53;1.60;;;13.40;99.90;;;;;;5036660;28;20033;-37
2022/08/28 03:17:59;;;;;;;3.97;1.80;;;13.40;99.90;;;;;;5057463;28;20051;-38
2022/08/28 03:20:24;;;;;;;8.60;1.90;;;13.40;99.90;;;;;;5037757;28;20150;-38
2022/08/28 03:25:34;;;;;;;5.93;1.50;;;13.30;99.90;;;;;;5033247;28;20148;-38
2022/08/28 03:28:00;;;;;;;4.70;1.80;;;13.30;99.90;;;;;;5042996;28;20577;-38
2022/08/28 03:30:26;;;;;;;2.95;1.35;;;13.20;99.90;;;;;;5044455;28;20462;-38
2022/08/28 03:32:52;;;;;;;5.10;1.60;;;13.20;99.90;;;;;;5040307;28;20034;-37
2022/08/28 03:35:19;;;;;;;6.22;2.22;;;13.20;99.90;;;;;;5032710;28;20054;-38
2022/08/28 03:37:45;;;;;;;6.80;1.60;;;13.20;99.90;;;;;;5037669;28;20044;-38
2022/08/28 03:40:12;;;;;;;4.85;2.15;;;13.20;99.90;;;;;;5037787;28;20055;-39
2022/08/28 03:42:38;;;;;;;4.38;1.60;;;13.20;99.90;;;;;;5034843;28;20082;-38
2022/08/28 03:45:06;;;;;;;3.65;1.50;;;13.20;99.90;;;;;;5039366;28;20037;-38
2022/08/28 03:47:35;;;;;;;5.05;1.63;;;13.20;99.90;;;;;;5039558;28;20048;-37
2022/08/28 03:50:02;;;;;;;4.68;1.60;;;13.20;99.90;;;;;;5034907;28;20041;-37
2022/08/28 03:52:28;;;;;;;5.18;1.67;;;13.10;99.90;;;;;;5039734;28;20096;-38
2022/08/28 03:54:54;;;;;;;5.15;1.80;;;13.10;99.90;;;;;;5036240;28;20068;-37
2022/08/28 03:57:21;;;;;;;5.80;1.90;;;13.10;99.90;;;;;;5034144;28;20075;-38
2022/08/28 03:59:49;;;;;;;6.30;1.83;;;13.10;99.90;;;;;;5035799;28;20052;-38
2022/08/28 04:02:17;;;;;;;3.50;1.80;;;13.10;99.90;;;;;;5039766;28;20044;-38
2022/08/28 04:04:44;;;;;;;5.15;1.70;;;13.10;99.90;;;;;;5033331;28;20757;-37
2022/08/28 04:07:10;;;;;;;3.85;1.45;;;13.10;99.90;;;;;;5036812;28;20495;-38
2022/08/28 04:09:36;;;;;;;3.72;1.38;;;13.10;99.90;;;;;;5035251;28;20049;-39
2022/08/28 04:12:01;;;;;;;2.33;1.35;;;13.10;99.90;;;;;;5035021;28;20063;-36
2022/08/28 04:14:27;;;;;;;3.67;1.20;;;13.10;99.90;;;;;;5039218;28;20049;-37
2022/08/28 04:16:53;;;;;;;3.75;1.40;;;13.10;99.90;;;;;;5036609;28;20033;-37
2022/08/28 04:19:20;;;;;;;4.25;1.42;;;13.10;99.90;;;;;;5036854;28;20037;-37
2022/08/28 04:21:46;;;;;;;3.55;1.45;;;13.00;99.90;;;;;;5041484;28;20075;-38
2022/08/28 04:24:12;;;;;;;5.00;1.30;;;13.00;99.90;;;;;;5034981;28;20037;-38
2022/08/28 04:26:38;;;;;;;5.20;1.38;;;13.00;99.90;;;;;;5035781;28;20469;-42
2022/08/28 04:29:07;;;;;;;4.13;1.20;;;13.00;99.90;;;;;;5038374;28;20140;-37
2022/08/28 04:31:33;;;;;;;3.28;1.38;;;12.90;99.90;;;;;;5039021;28;20046;-37
2022/08/28 04:34:01;;;;;;;4.55;1.48;;;12.90;99.90;;;;;;5040058;28;20045;-38
2022/08/28 04:36:28;;;;;;;3.58;1.30;;;12.90;99.90;;;;;;5046016;28;20045;-37
2022/08/28 04:38:54;;;;;;;5.32;1.45;;;12.90;99.90;;;;;;5037546;28;20447;-38
2022/08/28 04:41:20;;;;;;;4.63;1.88;;;12.90;99.90;;;;;;5046006;28;20037;-38
2022/08/28 04:43:46;;;;;;;4.15;1.20;;;13.00;99.90;;;;;;5043601;28;20509;-39
2022/08/28 04:46:13;;;;;;;4.22;1.60;;;13.00;99.90;;;;;;5039678;28;20040;-37
2022/08/28 04:48:40;;;;;;;4.13;1.33;;;13.00;99.90;;;;;;5042893;28;20067;-39
2022/08/28 04:51:08;;;;;;;5.03;1.50;;;13.00;99.90;;;;;;5042029;28;20049;-38
2022/08/28 04:53:35;;;;;;;5.72;1.60;;;13.00;99.90;;;;;;5039129;28;20045;-37
2022/08/28 04:56:04;;;;;;;7.07;1.60;;;13.00;99.90;;;;;;5043118;28;20501;-37
2022/08/28 04:58:31;;;;;;;4.18;1.45;;;13.00;99.90;;;;;;5038507;28;20091;-38
2022/08/28 05:00:57;;;;;;;4.65;1.40;;;13.00;99.90;;;;;;5043885;28;20486;-38
2022/08/28 05:03:23;;;;;;;4.68;1.60;;;13.00;99.90;;;;;;5040959;28;20039;-37
2022/08/28 05:05:51;;;;;;;3.85;1.50;;;13.10;99.90;;;;;;5035370;28;20021;-34
2022/08/28 05:08:20;;;;;;;5.90;1.85;;;13.20;99.90;;;;;;5041095;28;20037;-42
2022/08/28 05:10:46;;;;;;;5.60;1.42;;;13.30;99.90;;;;;;5045440;28;20494;-35
2022/08/28 05:13:14;;;;;;;5.00;1.60;;;13.40;99.90;;;;;;5034986;28;20029;-35
2022/08/28 05:15:47;;;;;;;4.13;1.77;;;13.50;99.90;;;;;;5041157;28;20402;-37
2022/08/28 05:18:15;;;;;;;5.43;1.20;;;13.60;99.90;;;;;;5036725;28;20095;-35
2022/08/28 05:20:44;;;;;;;5.88;1.60;;;13.60;99.90;;;;;;5036382;28;20061;-37
2022/08/28 05:23:10;;;;;;;7.63;1.60;;;13.70;99.90;;;;;;5040596;28;20440;-34
2022/08/28 05:25:39;;;;;;;4.88;1.75;;;13.80;99.90;;;;;;5039480;28;20037;-35
2022/08/28 05:28:05;;;;;;;4.13;1.83;;;13.80;99.90;;;;;;5042183;28;20048;-37
2022/08/28 05:30:32;;;;;;;4.13;1.40;;;13.80;99.90;;;;;;5039611;28;20082;-35
2022/08/28 05:32:58;;;;;;;4.22;1.23;;;13.80;99.90;;;;;;5038269;28;20052;-35
2022/08/28 05:35:25;;;;;;;3.92;1.13;;;13.80;99.90;;;;;;5040485;28;20080;-35
2022/08/28 05:37:51;;;;;;;4.25;1.10;;;13.80;99.90;;;;;;5042595;28;20044;-34
2022/08/28 05:40:20;;;;;;;3.72;1.20;;;13.80;99.90;;;;;;5041970;28;20056;-36
2022/08/28 05:42:46;;;;;;;3.03;1.20;;;13.80;99.90;;;;;;5034059;28;20033;-35
2022/08/28 05:45:12;;;;;;;4.55;1.30;;;13.80;99.90;;;;;;5035196;28;20037;-35
2022/08/28 05:47:38;;;;;;;3.35;1.30;;;13.90;99.90;;;;;;5040446;28;20065;-36
2022/08/28 05:50:05;;;;;;;4.00;1.60;;;13.90;99.90;;;;;;5043453;28;20068;-39
2022/08/28 05:52:33;;;;;;;5.60;1.63;;;13.90;99.90;;;;;;5043560;28;20138;-35
2022/08/28 05:54:59;;;;;;;4.88;1.27;;;13.90;99.90;;;;;;5039311;28;20534;-36
2022/08/28 05:57:25;;;;;;;4.05;1.10;;;14.00;99.90;;;;;;5039303;28;20488;-36
2022/08/28 05:59:51;;;;;;;6.03;1.30;;;14.10;99.90;;;;;;5034801;28;20183;-35
2022/08/28 06:02:16;;;;;;;2.60;0.93;;;14.10;99.90;;;;;;5035788;28;20041;-35
2022/08/28 06:04:42;;;;;;;3.47;1.52;;;14.20;99.90;;;;;;5038838;28;20041;-34
2022/08/28 06:07:10;;;;;;;5.72;1.00;;;14.20;99.90;;;;;;5040076;28;20037;-34
2022/08/28 06:09:37;;;;;;;3.85;1.00;;;14.30;99.90;;;;;;5035541;28;20052;-36
2022/08/28 06:12:04;;;;;;;7.78;1.38;;;14.40;99.90;;;;;;5038869;28;20037;-35
2022/08/28 06:14:30;;;;;;;6.13;1.27;;;14.50;99.90;;;;;;5037713;28;20513;-34
2022/08/28 06:16:57;;;;;;;6.30;1.27;;;14.60;99.90;;;;;;5038286;28;20487;-35
2022/08/28 06:19:25;;;;;;;3.60;0.90;;;14.60;99.90;;;;;;5039926;28;20029;-35
2022/08/28 06:21:55;;;;;;;3.63;0.88;;;14.60;99.90;;;;;;5003626;28;1122422;-34
2022/08/28 06:24:20;;;;;;;6.03;1.05;;;14.70;99.90;;;;;;5038595;28;20494;-34
2022/08/28 06:26:46;;;;;;;4.47;1.15;;;14.80;99.90;;;;;;5042350;28;20033;-34
2022/08/28 06:29:14;;;;;;;1.83;0.75;;;14.80;99.90;;;;;;5036650;28;20103;-34
2022/08/28 06:31:40;;;;;;;6.47;1.13;;;14.90;99.90;;;;;;5039134;28;20033;-36
2022/08/28 06:34:07;;;;;;;3.65;0.90;;;15.00;99.90;;;;;;5037258;28;20111;-35
2022/08/28 06:36:36;;;;;;;4.38;0.68;;;15.00;99.90;;;;;;5035415;28;20144;-35
2022/08/28 06:39:05;;;;;;;4.72;1.00;;;15.10;99.90;;;;;;5034162;28;20041;-35
2022/08/28 06:41:32;;;;;;;3.92;1.25;;;15.10;99.90;;;;;;5036867;28;20442;-35
2022/08/28 06:43:58;;;;;;;8.07;1.08;;;15.20;99.90;;;;;;5038692;28;20111;-37
2022/08/28 06:46:25;;;;;;;5.32;0.98;;;15.30;99.90;;;;;;5040146;28;20129;-34
2022/08/28 06:48:52;;;;;;;5.10;0.82;;;15.30;99.90;;;;;;5036806;28;20486;-35
2022/08/28 06:51:17;;;;;;;5.30;1.13;;;15.40;99.90;;;;;;5039612;28;20068;-35
2022/08/28 06:53:44;;;;;;;3.22;1.00;;;15.50;99.90;;;;;;5042729;28;20545;-34
2022/08/28 06:56:13;;;;;;;4.32;0.75;;;15.50;99.90;;;;;;5033005;28;20029;-36
2022/08/28 06:58:42;;;;;;;6.45;0.90;;;15.60;99.90;;;;;;5035542;28;20506;-34
2022/08/28 07:01:11;;;;;;;5.78;0.80;;;15.70;99.90;;;;;;5043105;28;20493;-36
2022/08/28 07:03:38;;;;;;;7.15;0.90;;;15.70;99.90;;;;;;5039862;28;20033;-35
2022/08/28 07:06:05;;;;;;;5.03;1.00;;;15.80;99.90;;;;;;5038403;28;20064;-36
2022/08/28 07:08:33;;;;;;;5.20;0.63;;;15.80;99.90;;;;;;5042879;28;20147;-34
2022/08/28 07:11:08;;;;;;;4.55;0.68;;;15.90;99.90;;;;;;5036606;28;20094;-36
2022/08/28 07:13:34;;;;;;;3.97;0.90;;;16.00;99.90;;;;;;5035337;28;20558;-35
2022/08/28 07:15:59;;;;;;;4.75;1.23;;;16.00;99.90;;;;;;5035587;28;20041;-35
2022/08/28 07:18:25;;;;;;;8.13;0.80;;;16.10;99.90;;;;;;5037723;28;20048;-36
2022/08/28 07:20:59;;;;;;;2.72;0.70;;;16.20;99.90;;;;;;5039026;28;20058;-35
2022/08/28 07:23:29;;;;;;;4.30;0.75;;;16.20;99.90;;;;;;5034866;28;20041;-36
2022/08/28 07:25:55;;;;;;;5.18;0.80;;;16.30;99.90;;;;;;5034420;28;20045;-36
2022/08/28 07:28:21;;;;;;;4.15;0.98;;;16.40;99.90;;;;;;5037916;28;20388;-36
2022/08/28 07:30:59;;;;;;;6.68;0.90;;;16.50;99.90;;;;;;5043008;28;20033;-36
2022/08/28 07:33:27;;;;;;;5.45;1.30;;;16.60;99.90;;;;;;5036994;28;20048;-36
2022/08/28 07:35:54;;;;;;;2.17;1.00;;;16.60;99.90;;;;;;5037622;28;20075;-36
2022/08/28 07:38:20;;;;;;;9.48;0.95;;;16.70;99.90;;;;;;5037088;28;20045;-36
2022/08/28 07:40:46;;;;;;;3.03;0.50;;;16.80;99.90;;;;;;5037117;28;20678;-35
2022/08/28 07:46:00;;;;;;;5.28;0.90;;;17.00;99.90;;;;;;5031904;28;20628;-35
2022/08/28 07:48:26;;;;;;;8.35;0.95;;;17.10;99.90;;;;;;5042350;28;20037;-36
2022/08/28 07:50:52;;;;;;;6.97;0.93;;;17.10;99.90;;;;;;5037690;28;20033;-36
2022/08/28 07:53:18;;;;;;;3.97;0.68;;;17.30;99.90;;;;;;5036462;28;20402;-36
2022/08/28 07:55:44;;;;;;;3.42;0.65;;;17.40;99.90;;;;;;5036866;28;20609;-36
2022/08/28 07:58:10;;;;;;;5.85;0.90;;;17.40;99.90;;;;;;5036843;28;20041;-36
2022/08/28 08:00:36;;;;;;;4.95;0.60;;;17.50;99.90;;;;;;5040029;28;20083;-36
2022/08/28 08:03:02;;;;;;;3.78;0.50;;;17.60;99.90;;;;;;5037117;28;20045;-48
2022/08/28 08:05:27;;;;;;;5.55;0.80;;;17.70;99.90;;;;;;5035057;28;20040;-36
2022/08/28 08:07:53;;;;;;;4.40;0.55;;;17.80;99.70;;;;;;5039921;28;20048;-36
2022/08/28 08:10:19;;;;;;;6.38;1.10;;;17.90;99.50;;;;;;5040338;28;20056;-35
2022/08/28 08:12:45;;;;;;;4.40;0.95;;;18.00;98.80;;;;;;5034820;28;20049;-36
2022/08/28 08:15:11;;;;;;;4.55;0.90;;;18.10;98.20;;;;;;5035272;28;20063;-35
2022/08/28 08:17:38;;;;;;;4.05;0.73;;;18.20;97.80;;;;;;5037773;28;20441;-36
2022/08/28 08:20:05;;;;;;;6.07;0.75;;;18.30;97.20;;;;;;5038110;28;20056;-36
2022/08/28 08:22:31;;;;;;;5.07;0.60;;;18.30;96.70;;;;;;5039723;28;20112;-36
2022/08/28 08:24:56;;;;;;;4.68;0.80;;;18.50;96.20;;;;;;5035693;28;20124;-36
2022/08/28 08:27:22;;;;;;;3.70;0.70;;;18.50;95.30;;;;;;5042039;28;20044;-35
2022/08/28 08:29:49;;;;;;;2.95;0.60;;;18.60;94.70;;;;;;5040766;28;20090;-38
2022/08/28 08:32:16;;;;;;;4.40;0.80;;;18.70;93.90;;;;;;5035477;28;20103;-35
2022/08/28 08:34:48;;;;;;;3.53;0.68;;;18.80;94.10;;;;;;5040977;28;20060;-36
2022/08/28 08:37:14;;;;;;;3.72;0.50;;;19.00;93.00;;;;;;5032385;28;20064;-36
2022/08/28 08:39:42;;;;;;;2.95;0.60;;;19.10;92.00;;;;;;5041024;28;20061;-37
2022/08/28 08:42:23;;;;;;;2.22;0.52;;;19.30;91.80;;;;;;5034418;28;20033;-38
2022/08/28 08:44:51;;;;;;;2.72;0.57;;;19.50;90.70;;;;;;5037396;28;20041;-39
2022/08/28 08:47:31;;;;;;;2.05;0.50;;;19.60;90.70;;;;;;5037204;28;20106;-36
2022/08/28 08:50:01;;;;;;;2.55;0.50;;;19.60;90.20;;;;;;5036354;28;20072;-38
2022/08/28 08:52:33;;;;;;;5.68;0.60;;;19.60;90.00;;;;;;5037547;28;20038;-38
2022/08/28 08:55:20;;;;;;;7.75;0.60;;;19.40;90.30;;;;;;5035715;28;20116;-38
2022/08/28 08:57:56;;;;;;;2.63;0.57;;;19.20;90.60;;;;;;5032878;28;20052;-37
2022/08/28 09:00:22;;;;;;;7.15;0.88;;;19.00;91.10;;;;;;5040241;28;20052;-37
2022/08/28 09:03:00;;;;;;;8.38;1.00;;;18.80;91.60;;;;;;5034790;28;20033;-36
2022/08/28 09:05:39;;;;;;;2.78;0.80;;;18.60;92.00;;;;;;5043613;28;20041;-37
2022/08/28 09:08:11;;;;;;;5.20;0.70;;;18.50;92.10;;;;;;5041241;28;20067;-37
2022/08/28 09:10:40;;;;;;;;;;;18.40;92.50;;;;;;5039054;28;20457;-36
2022/08/28 09:13:16;;;;;;;5.78;0.63;;;18.40;92.70;;;;;;5037582;28;19926;-36
2022/08/28 09:15:45;;;;;;;5.25;0.88;;;18.50;92.90;;;;;;5046064;28;20517;-38
2022/08/28 09:18:27;;;;;;;4.53;0.70;;;18.80;92.50;;;;;;5041832;28;20140;-37
2022/08/28 09:20:57;;;;;;;4.87;0.87;;;19.10;91.50;;;;;;5037708;28;20061;-38
2022/08/28 09:23:24;;;;;;;5.68;0.80;;;19.30;91.30;;;;;;5043258;28;20525;-38
2022/08/28 09:26:00;;;;;;;2.42;0.65;;;19.50;90.00;;;;;;5041523;28;20398;-37
2022/08/28 09:28:29;;;;;;;2.65;0.52;;;19.70;87.80;;;;;;5043555;28;20049;-36
2022/08/28 09:31:02;;;;;;;3.05;0.70;;;19.90;87.40;;;;;;5036306;28;20037;-36
2022/08/28 09:33:35;;;;;;;5.43;0.80;;;20.20;85.80;;;;;;5038548;28;20037;-36
2022/08/28 09:36:36;;;;;;;3.95;0.52;;;20.40;85.10;;;;;;5042327;28;20049;-36
2022/08/28 09:39:06;;;;;;;3.85;0.75;;;20.40;81.80;;;;;;5034890;28;20029;-36
2022/08/28 09:44:20;;;;;;;2.55;0.73;;;20.30;83.70;;;;;;5041972;28;20119;-35
2022/08/28 09:46:51;;;;;;;5.93;0.60;;;20.10;84.80;;;;;;5039263;28;20459;-35
2022/08/28 09:49:28;;;;;;;2.47;0.70;;;19.90;85.80;;;;;;5044293;28;20041;-36
2022/08/28 09:51:55;;;;;;;4.80;0.93;;;19.90;86.80;;;;;;5043168;28;20040;-36
2022/08/28 09:54:36;;;;;;;2.70;0.43;;;19.90;86.80;;;;;;5005279;28;20047;-36
2022/08/28 09:57:02;;;;;;;3.53;0.65;;;20.00;84.90;;;;;;5048032;28;20041;-36
2022/08/28 09:59:29;;;;;;;2.05;0.50;;;20.10;85.20;;;;;;5035920;28;20041;-36
2022/08/28 10:02:23;;;;;;;3.95;0.80;;;20.20;84.90;;;;;;5036590;28;20041;-36
2022/08/28 10:05:15;;;;;;;2.28;0.60;;;20.30;83.90;;;;;;5035523;28;20053;-36
2022/08/28 10:07:46;;;;;;;3.42;0.68;;;20.50;81.70;;;;;;5042465;28;20123;-36
2022/08/28 10:10:30;;;;;;;3.53;1.08;;;20.60;82.50;;;;;;5040209;28;20095;-35
2022/08/28 10:13:11;;;;;;;2.15;0.65;;;20.70;81.90;;;;;;5041433;28;20037;-38
2022/08/28 10:15:59;;;;;;;5.40;0.63;;;20.90;83.00;;;;;;5040828;28;20397;-38
2022/08/28 10:18:46;;;;;;;5.32;0.90;;;21.00;80.30;;;;;;5040986;28;20128;-37
2022/08/28 10:21:11;;;;;;;1.83;0.50;;;21.10;78.80;;;;;;5035503;28;20062;-37
2022/08/28 10:23:40;;;;;;;3.55;0.65;;;21.20;77.90;;;;;;5038535;28;20036;-37
2022/08/28 10:26:24;;;;;;;3.55;0.85;;;21.30;76.50;;;;;;5044835;28;20076;-38
2022/08/28 10:29:17;;;;;;;4.07;0.70;;;21.50;73.60;;;;;;5040093;28;20095;-37
2022/08/28 10:32:04;;;;;;;3.38;0.70;;;21.50;74.10;;;;;;5041068;28;20033;-37
2022/08/28 10:34:38;;;;;;;6.22;0.75;;;21.30;75.40;;;;;;5041042;28;20043;-46
2022/08/28 10:37:19;;;;;;;4.60;0.70;;;21.10;76.40;;;;;;5043711;28;20047;-45
2022/08/28 10:39:51;;;;;;;3.33;0.75;;;20.90;77.90;;;;;;5037122;28;20053;-39
2022/08/28 10:42:36;;;;;;;3.83;0.80;;;21.10;78.60;;;;;;5031772;28;20040;-48
2022/08/28 10:45:12;;;;;;;8.55;0.70;;;21.20;78.10;;;;;;5034225;28;20111;-38
2022/08/28 10:47:44;;;;;;;4.07;0.70;;;21.50;76.30;;;;;;5038593;28;20395;-37
2022/08/28 10:50:27;;;;;;;6.38;0.75;;;21.70;74.70;;;;;;5044448;28;20033;-44
2022/08/28 10:53:06;;;;;;;2.85;0.70;;;22.10;73.80;;;;;;5040831;28;20029;-34
2022/08/28 10:55:40;;;;;;;3.92;0.80;;;22.40;72.00;;;;;;5044595;28;20078;-35
2022/08/28 10:58:08;;;;;;;5.13;0.77;;;22.60;69.00;;;;;;5037234;28;20037;-36
2022/08/28 11:00:36;;;;;;;4.13;0.80;;;22.70;68.80;;;;;;5041568;28;20040;-35
2022/08/28 11:03:07;;;;;;;7.78;1.00;;;22.80;68.60;;;;;;5043301;28;20104;-35
2022/08/28 11:05:53;;;;;;;2.53;0.70;;;22.90;67.20;;;;;;5037133;28;20040;-35
2022/08/28 11:08:34;;;;;;;2.10;0.60;;;23.10;64.60;;;;;;5035624;28;20037;-34
2022/08/28 11:11:03;;;;;;;3.80;0.82;;;23.30;62.30;;;;;;5033292;28;20522;-43
2022/08/28 11:14:00;;;;;;;3.53;0.75;;;23.40;62.80;;;;;;5043281;28;20491;-34
2022/08/28 11:16:28;;;;;;;3.50;0.63;;;23.30;58.80;;;;;;5032068;28;20053;-35
2022/08/28 11:19:13;;;;;;;2.78;0.60;;;23.00;62.30;;;;;;5038016;28;20512;-37
2022/08/28 11:22:09;;;;;;;2.70;0.70;;;22.80;62.90;;;;;;5037747;28;20053;-35
2022/08/28 11:24:44;;;;;;;2.65;0.57;;;22.60;64.40;;;;;;5035956;28;20055;-35
2022/08/28 11:27:32;;;;;;;3.80;0.70;;;22.40;65.90;;;;;;5033835;28;20110;-35
2022/08/28 11:30:10;;;;;;;3.90;0.70;;;22.20;64.80;;;;;;5035346;28;20490;-35
2022/08/28 11:32:37;;;;;;;5.40;0.93;;;22.00;69.50;;;;;;5036426;28;20482;-37
2022/08/28 11:35:26;;;;;;;2.38;0.60;;;22.00;69.90;;;;;;5041387;28;20041;-36
2022/08/28 11:37:53;;;;;;;4.22;0.70;;;22.10;70.00;;;;;;5033798;28;20033;-43
2022/08/28 11:40:39;;;;;;;1.70;0.60;;;22.30;69.70;;;;;;5036358;28;20042;-35
2022/08/28 11:43:14;;;;;;;4.78;0.70;;;22.60;66.70;;;;;;5041536;28;20086;-36
2022/08/28 11:45:44;;;;;;;2.78;0.60;;;23.00;59.90;;;;;;5037748;28;20083;-36
2022/08/28 11:48:21;;;;;;;2.85;0.50;;;23.00;56.40;;;;;;5037882;28;20063;-35
2022/08/28 11:50:52;;;;;;;2.63;0.85;;;22.90;56.40;;;;;;5036208;28;20037;-36
2022/08/28 11:54:03;;;;;;;4.20;0.80;;;22.90;58.00;;;;;;5038603;28;20091;-35
2022/08/28 11:57:11;;;;;;;2.05;0.50;;;23.20;55.70;;;;;;5036984;28;20034;-35
2022/08/28 11:59:58;;;;;;;2.75;0.88;;;23.40;51.20;;;;;;5037168;28;20037;-35
2022/08/28 12:02:39;;;;;;;2.97;0.63;;;23.40;49.30;;;;;;5031571;28;20076;-35
2022/08/28 12:05:16;;;;;;;2.03;0.65;;;23.10;49.40;;;;;;5037118;28;20083;-35
2022/08/28 12:07:47;;;;;;;3.80;0.65;;;22.90;52.20;;;;;;5032920;28;20110;-36
2022/08/28 12:10:19;;;;;;;4.43;0.68;;;23.00;52.70;;;;;;5035099;28;20049;-37
2022/08/28 12:12:45;;;;;;;2.67;0.60;;;23.20;51.60;;;;;;5035236;28;20041;-36
2022/08/28 12:15:26;;;;;;;5.15;0.90;;;23.30;50.30;;;;;;5032248;28;20491;-35
2022/08/28 12:17:52;;;;;;;4.40;0.70;;;23.50;47.60;;;;;;5035520;28;20049;-36
2022/08/28 12:20:49;;;;;;;3.55;0.90;;;23.70;48.10;;;;;;5032914;28;20056;-38
2022/08/28 12:23:39;;;;;;;2.33;0.70;;;23.90;46.60;;;;;;5035770;28;20092;-36
2022/08/28 12:26:17;;;;;;;2.83;0.70;;;23.90;46.50;;;;;;5037332;28;20045;-36
2022/08/28 12:28:49;;;;;;;3.67;0.65;;;24.00;47.30;;;;;;5033898;28;20139;-36
2022/08/28 12:32:10;;;;;;;3.40;0.80;;;24.10;47.20;;;;;;5034139;28;20033;-34
2022/08/28 12:34:22;;;;;;;2.58;0.80;;;24.10;47.60;;;;;;5039991;28;20498;-35
2022/08/28 12:36:58;;;;;;;3.05;0.82;;;24.20;47.50;;;;;;5040218;28;20037;-36
2022/08/28 12:39:25;;;;;;;2.35;0.60;;;24.40;47.50;;;;;;5039820;28;20052;-36
2022/08/28 12:41:51;;;;;;;3.45;1.00;;;24.50;46.80;;;;;;5036750;28;20037;-36
2022/08/28 12:44:26;;;;;;;2.53;0.73;;;24.60;46.20;;;;;;5042613;28;20417;-37
2022/08/28 12:46:53;;;;;;;2.33;0.73;;;24.60;44.60;;;;;;5040375;28;20056;-37
2022/08/28 12:49:33;;;;;;;3.22;0.70;;;24.70;43.90;;;;;;5040073;28;20025;-35
2022/08/28 12:52:21;;;;;;;3.42;0.80;;;24.80;44.00;;;;;;5045249;28;20422;-35
2022/08/28 12:54:49;;;;;;;5.22;0.80;;;25.10;43.30;;;;;;5042058;28;20084;-36
2022/08/28 12:57:20;;;;;;;3.92;0.73;;;24.90;43.00;;;;;;5038267;28;20081;-35
2022/08/28 12:59:49;;;;;;;2.80;0.70;;;24.60;42.50;;;;;;5041981;28;20698;-34
2022/08/28 13:02:29;;;;;;;3.63;0.93;;;24.20;43.60;;;;;;5042310;28;20523;-36
2022/08/28 13:05:10;;;;;;;6.93;0.88;;;23.90;44.00;;;;;;5041166;28;20400;-34
2022/08/28 13:07:46;;;;;;;4.65;0.90;;;23.80;45.30;;;;;;5044130;28;20116;-36
2022/08/28 13:10:23;;;;;;;5.57;0.80;;;23.90;45.80;;;;;;5041608;28;20049;-36
2022/08/28 13:12:59;;;;;;;3.40;0.73;;;24.40;46.10;;;;;;5043230;28;20059;-36